createdAt,value
2022-11-05T00:00:57.527Z,8.7
2022-11-05T00:01:57.610Z,8.7
2022-11-05T00:02:57.611Z,8.7
2022-11-05T00:03:57.705Z,8.7
2022-11-05T00:04:57.727Z,8.7
2022-11-05T00:05:57.774Z,8.6
2022-11-05T00:06:57.877Z,8.6
2022-11-05T00:07:57.849Z,8.6
2022-11-05T00:08:57.967Z,8.7
2022-11-05T00:09:58.017Z,8.7
2022-11-05T00:10:59.145Z,8.7
2022-11-05T00:11:58.148Z,8.8
2022-11-05T00:12:58.447Z,8.8
2022-11-05T00:14:03.512Z,8.7
2022-11-05T00:14:58.301Z,8.6
2022-11-05T00:15:58.435Z,8.5
2022-11-05T00:16:58.390Z,8.5
2022-11-05T00:17:58.487Z,8.4
2022-11-05T00:18:58.586Z,8.5
2022-11-05T00:19:58.628Z,8.5
2022-11-05T00:20:58.705Z,8.5
2022-11-05T00:21:58.751Z,8.5
2022-11-05T00:22:58.844Z,8.4
2022-11-05T00:24:01.004Z,8.4
2022-11-05T00:24:58.908Z,8.5
2022-11-05T00:25:58.966Z,8.6
2022-11-05T00:27:00.345Z,8.6
2022-11-05T00:27:59.067Z,8.5
2022-11-05T00:28:59.376Z,8.4
2022-11-05T00:29:59.216Z,8.4
2022-11-05T00:30:59.560Z,8.4
2022-11-05T00:31:59.327Z,8.4
2022-11-05T00:32:59.315Z,8.4
2022-11-05T00:33:59.367Z,8.4
2022-11-05T00:34:59.691Z,8.6
2022-11-05T00:35:59.550Z,8.4
2022-11-05T00:36:59.547Z,8.4
2022-11-05T00:37:59.663Z,8.5
2022-11-05T00:39:04.744Z,8.5
2022-11-05T00:39:59.757Z,8.4
2022-11-05T00:40:59.804Z,8.5
2022-11-05T00:41:59.804Z,8.5
2022-11-05T00:42:59.880Z,8.4
2022-11-05T00:43:59.927Z,8.4
2022-11-05T00:44:59.955Z,8.3
2022-11-05T00:46:00.036Z,8.4
2022-11-05T00:47:00.114Z,8.4
2022-11-05T00:48:00.171Z,8.4
2022-11-05T00:49:00.225Z,8.4
2022-11-05T00:50:00.301Z,8.4
2022-11-05T00:51:49.972Z,8.4
2022-11-05T00:53:35.167Z,8.4
2022-11-05T00:53:36.649Z,8.4
2022-11-05T00:54:00.540Z,8.3
2022-11-05T00:55:00.606Z,8.4
2022-11-05T00:56:01.357Z,8.4
2022-11-05T00:57:04.569Z,8.3
2022-11-05T00:58:05.123Z,8.3
2022-11-05T00:59:00.789Z,8.2
2022-11-05T01:00:00.827Z,8.2
2022-11-05T01:01:01.143Z,8.3
2022-11-05T01:02:05.291Z,8.2
2022-11-05T01:03:00.974Z,8.2
2022-11-05T01:04:01.038Z,8.3
2022-11-05T01:05:01.073Z,8.4
2022-11-05T01:06:06.331Z,8.3
2022-11-05T01:07:01.299Z,8.3
2022-11-05T01:08:01.245Z,8.3
2022-11-05T01:09:01.254Z,8.2
2022-11-05T01:10:02.100Z,8.2
2022-11-05T01:11:01.368Z,8.2
2022-11-05T01:12:01.816Z,8.2
2022-11-05T01:13:02.262Z,8.3
2022-11-05T01:14:01.544Z,8.3
2022-11-05T01:15:01.575Z,8.2
2022-11-05T01:16:03.275Z,8.1
2022-11-05T01:17:01.738Z,8.2
2022-11-05T01:18:01.737Z,8.3
2022-11-05T01:19:01.847Z,8.2
2022-11-05T01:20:01.939Z,8.3
2022-11-05T01:21:01.941Z,8.3
2022-11-05T01:22:16.542Z,8.2
2022-11-05T01:23:02.128Z,8.1
2022-11-05T01:24:07.081Z,8
2022-11-05T01:25:02.578Z,8.3
2022-11-05T01:26:02.503Z,8.3
2022-11-05T01:27:02.618Z,8.3
2022-11-05T01:28:02.658Z,8.1
2022-11-05T01:29:02.594Z,8.1
2022-11-05T01:30:04.021Z,8.1
2022-11-05T01:31:07.550Z,8.1
2022-11-05T01:32:07.759Z,8.2
2022-11-05T01:33:02.675Z,8.2
2022-11-05T01:34:05.144Z,8.2
2022-11-05T01:35:02.865Z,8.3
2022-11-05T01:36:02.925Z,8.2
2022-11-05T01:37:02.960Z,8.3
2022-11-05T01:38:02.995Z,8.4
2022-11-05T01:39:03.070Z,8.4
2022-11-05T01:40:03.119Z,8.4
2022-11-05T01:41:03.140Z,8.3
2022-11-05T01:42:04.391Z,8.3
2022-11-05T01:43:03.563Z,8.3
2022-11-05T01:44:03.321Z,8.4
2022-11-05T01:45:03.392Z,8.4
2022-11-05T01:46:03.532Z,8.3
2022-11-05T01:47:03.794Z,8.3
2022-11-05T01:48:03.584Z,8.3
2022-11-05T01:49:03.763Z,8.5
2022-11-05T01:50:03.677Z,8.4
2022-11-05T01:51:03.927Z,8.3
2022-11-05T01:52:32.489Z,8.3
2022-11-05T01:53:36.136Z,8.4
2022-11-05T01:54:46.844Z,8.5
2022-11-05T01:55:03.908Z,8.4
2022-11-05T01:56:04.259Z,8.4
2022-11-05T01:57:04.187Z,8.3
2022-11-05T01:58:04.369Z,8.3
2022-11-05T01:59:04.546Z,8.3
2022-11-05T02:00:04.402Z,8.3
2022-11-05T02:01:04.536Z,8.3
2022-11-05T02:02:04.696Z,8.5
2022-11-05T02:03:04.667Z,8.7
2022-11-05T02:04:04.641Z,8.8
2022-11-05T02:05:04.716Z,8.6
2022-11-05T02:06:04.757Z,8.5
2022-11-05T02:07:04.816Z,8.5
2022-11-05T02:08:04.917Z,8.6
2022-11-05T02:09:05.270Z,8.6
2022-11-05T02:10:10.663Z,8.5
2022-11-05T02:11:05.287Z,8.4
2022-11-05T02:13:48.488Z,8.5
2022-11-05T02:13:48.605Z,8.5
2022-11-05T02:14:05.275Z,8.4
2022-11-05T02:15:05.250Z,8.4
2022-11-05T02:16:05.326Z,8.4
2022-11-05T02:17:05.364Z,8.5
2022-11-05T02:18:05.638Z,8.5
2022-11-05T02:19:05.567Z,8.6
2022-11-05T02:20:05.529Z,8.6
2022-11-05T02:21:05.610Z,8.5
2022-11-05T02:22:06.810Z,8.5
2022-11-05T02:23:05.852Z,8.4
2022-11-05T02:24:10.980Z,8.3
2022-11-05T02:25:05.835Z,8.3
2022-11-05T02:26:05.962Z,8.2
2022-11-05T02:27:05.935Z,8.2
2022-11-05T02:28:05.976Z,8.2
2022-11-05T02:29:06.136Z,8.3
2022-11-05T02:30:06.130Z,8.3
2022-11-05T02:31:06.145Z,8.4
2022-11-05T02:32:06.201Z,8.4
2022-11-05T02:33:06.251Z,8.4
2022-11-05T02:34:06.372Z,8.5
2022-11-05T02:35:06.659Z,8.4
2022-11-05T02:36:06.991Z,8.3
2022-11-05T02:37:06.524Z,8.2
2022-11-05T02:38:06.541Z,8.2
2022-11-05T02:39:06.642Z,8.1
2022-11-05T02:40:06.627Z,8.2
2022-11-05T02:41:06.728Z,8.2
2022-11-05T02:42:07.007Z,8.2
2022-11-05T02:43:06.856Z,8.3
2022-11-05T02:44:06.862Z,8.2
2022-11-05T02:45:06.960Z,8.2
2022-11-05T02:46:06.967Z,8.3
2022-11-05T02:47:07.088Z,8.3
2022-11-05T02:48:07.097Z,8.2
2022-11-05T02:49:07.193Z,8.2
2022-11-05T02:50:07.281Z,8.2
2022-11-05T02:51:10.586Z,8.2
2022-11-05T02:52:07.577Z,8.1
2022-11-05T02:53:07.853Z,8
2022-11-05T02:54:07.477Z,8
2022-11-05T02:55:07.601Z,8
2022-11-05T02:56:07.623Z,8
2022-11-05T02:57:07.725Z,8
2022-11-05T02:58:07.704Z,7.9
2022-11-05T02:59:07.752Z,7.8
2022-11-05T03:00:07.801Z,7.9
2022-11-05T03:01:07.866Z,7.9
2022-11-05T03:02:08.061Z,7.9
2022-11-05T03:03:08.124Z,7.9
2022-11-05T03:04:08.038Z,7.8
2022-11-05T03:05:08.036Z,7.8
2022-11-05T03:06:08.136Z,8
2022-11-05T03:07:08.434Z,7.9
2022-11-05T03:08:08.290Z,7.8
2022-11-05T03:09:08.306Z,7.6
2022-11-05T03:10:08.386Z,7.7
2022-11-05T03:11:08.433Z,7.7
2022-11-05T03:12:08.451Z,7.8
2022-11-05T03:13:08.927Z,7.7
2022-11-05T03:14:08.599Z,7.8
2022-11-05T03:15:08.617Z,7.8
2022-11-05T03:16:10.082Z,7.7
2022-11-05T03:17:08.745Z,7.7
2022-11-05T03:18:08.814Z,7.7
2022-11-05T03:19:08.943Z,7.7
2022-11-05T03:20:08.944Z,7.8
2022-11-05T03:21:09.058Z,7.8
2022-11-05T03:22:13.597Z,7.9
2022-11-05T03:23:09.750Z,7.9
2022-11-05T03:24:09.119Z,7.9
2022-11-05T03:25:09.254Z,7.9
2022-11-05T03:26:09.339Z,7.9
2022-11-05T03:27:09.283Z,7.9
2022-11-05T03:28:10.430Z,7.9
2022-11-05T03:29:09.382Z,7.9
2022-11-05T03:30:09.423Z,7.9
2022-11-05T03:31:09.473Z,7.8
2022-11-05T03:32:09.539Z,7.8
2022-11-05T03:33:09.815Z,7.9
2022-11-05T03:34:09.627Z,7.9
2022-11-05T03:35:09.663Z,7.9
2022-11-05T03:36:09.759Z,7.9
2022-11-05T03:37:09.777Z,7.9
2022-11-05T03:38:09.832Z,7.8
2022-11-05T03:39:09.948Z,7.8
2022-11-05T03:40:09.973Z,7.7
2022-11-05T03:41:10.061Z,7.6
2022-11-05T03:42:10.110Z,7.6
2022-11-05T03:43:10.474Z,7.6
2022-11-05T03:44:10.331Z,7.7
2022-11-05T03:45:10.603Z,7.7
2022-11-05T03:46:10.413Z,7.8
2022-11-05T03:47:10.665Z,7.9
2022-11-05T03:48:10.829Z,7.8
2022-11-05T03:49:10.676Z,7.9
2022-11-05T03:50:11.009Z,7.8
2022-11-05T03:51:11.286Z,7.7
2022-11-05T03:52:10.900Z,7.6
2022-11-05T03:53:11.048Z,7.7
2022-11-05T03:54:11.030Z,7.8
2022-11-05T03:55:11.046Z,7.8
2022-11-05T03:56:11.104Z,7.8
2022-11-05T03:57:11.095Z,7.8
2022-11-05T03:58:11.185Z,7.8
2022-11-05T03:59:11.224Z,7.9
2022-11-05T04:00:12.272Z,8
2022-11-05T04:01:11.371Z,8
2022-11-05T04:02:11.579Z,7.9
2022-11-05T04:03:11.693Z,7.9
2022-11-05T04:04:11.565Z,7.9
2022-11-05T04:05:11.591Z,8
2022-11-05T04:06:13.086Z,8
2022-11-05T04:07:11.668Z,8
2022-11-05T04:08:14.390Z,7.9
2022-11-05T04:09:11.793Z,7.8
2022-11-05T04:10:11.818Z,7.7
2022-11-05T04:11:11.918Z,7.8
2022-11-05T04:12:11.940Z,7.9
2022-11-05T04:13:12.213Z,7.8
2022-11-05T04:14:12.062Z,7.8
2022-11-05T04:15:12.080Z,7.8
2022-11-05T04:16:17.114Z,7.8
2022-11-05T04:17:12.350Z,7.8
2022-11-05T04:18:12.262Z,7.8
2022-11-05T04:19:12.310Z,7.8
2022-11-05T04:20:12.421Z,7.8
2022-11-05T04:21:12.524Z,7.8
2022-11-05T04:22:13.634Z,7.8
2022-11-05T04:23:12.885Z,7.9
2022-11-05T04:24:12.936Z,7.8
2022-11-05T04:25:12.883Z,8
2022-11-05T04:26:13.050Z,8
2022-11-05T04:27:12.969Z,8
2022-11-05T04:28:13.273Z,7.8
2022-11-05T04:29:14.124Z,7.8
2022-11-05T04:31:31.855Z,7.8
2022-11-05T04:32:41.594Z,7.5
2022-11-05T04:33:13.686Z,7.6
2022-11-05T04:34:13.438Z,7.8
2022-11-05T04:35:13.470Z,7.8
2022-11-05T04:36:13.687Z,7.8
2022-11-05T04:37:13.568Z,7.8
2022-11-05T04:38:13.818Z,7.9
2022-11-05T04:39:13.918Z,7.9
2022-11-05T04:40:13.741Z,7.8
2022-11-05T04:41:13.775Z,7.8
2022-11-05T04:42:13.851Z,7.8
2022-11-05T04:43:15.242Z,7.8
2022-11-05T04:44:13.934Z,7.8
2022-11-05T04:45:14.014Z,7.8
2022-11-05T04:46:14.068Z,7.8
2022-11-05T04:47:14.098Z,7.8
2022-11-05T04:48:14.220Z,7.8
2022-11-05T04:49:14.273Z,7.8
2022-11-05T04:50:15.291Z,7.8
2022-11-05T04:51:14.389Z,7.8
2022-11-05T04:52:17.560Z,7.7
2022-11-05T04:53:19.485Z,7.7
2022-11-05T04:54:19.472Z,7.8
2022-11-05T04:55:14.584Z,7.7
2022-11-05T04:56:14.628Z,7.7
2022-11-05T04:57:14.670Z,7.8
2022-11-05T04:58:14.742Z,7.7
2022-11-05T04:59:14.787Z,7.7
2022-11-05T05:00:14.871Z,7.8
2022-11-05T05:01:14.992Z,7.7
2022-11-05T05:02:14.987Z,7.7
2022-11-05T05:03:15.021Z,7.7
2022-11-05T05:04:15.088Z,7.8
2022-11-05T05:05:15.143Z,7.8
2022-11-05T05:06:15.186Z,7.8
2022-11-05T05:07:15.278Z,7.7
2022-11-05T05:08:15.422Z,7.8
2022-11-05T05:09:15.335Z,7.8
2022-11-05T05:10:15.379Z,7.8
2022-11-05T05:11:15.408Z,7.7
2022-11-05T05:12:15.481Z,7.6
2022-11-05T05:13:15.550Z,7.6
2022-11-05T05:14:15.615Z,7.5
2022-11-05T05:15:15.674Z,7.6
2022-11-05T05:16:15.730Z,7.6
2022-11-05T05:17:15.804Z,7.5
2022-11-05T05:18:16.081Z,7.5
2022-11-05T05:19:16.179Z,7.5
2022-11-05T05:20:15.920Z,7.5
2022-11-05T05:21:15.982Z,7.5
2022-11-05T05:22:16.025Z,7.5
2022-11-05T05:23:16.105Z,7.5
2022-11-05T05:24:16.171Z,7.5
2022-11-05T05:25:16.221Z,7.5
2022-11-05T05:26:16.261Z,7.4
2022-11-05T05:27:16.353Z,7.4
2022-11-05T05:28:16.363Z,7.4
2022-11-05T05:29:16.446Z,7.4
2022-11-05T05:30:17.544Z,7.4
2022-11-05T05:31:16.586Z,7.5
2022-11-05T05:32:16.872Z,7.5
2022-11-05T05:33:16.922Z,7.4
2022-11-05T05:34:16.722Z,7.4
2022-11-05T05:35:16.813Z,7.3
2022-11-05T05:36:16.844Z,7.3
2022-11-05T05:37:16.884Z,7.3
2022-11-05T05:38:16.914Z,7.3
2022-11-05T05:39:16.976Z,7.3
2022-11-05T05:40:17.081Z,7.3
2022-11-05T05:41:17.074Z,7.3
2022-11-05T05:42:17.140Z,7.3
2022-11-05T05:43:17.240Z,7.3
2022-11-05T05:44:17.333Z,7.3
2022-11-05T05:45:17.340Z,7.4
2022-11-05T05:46:17.363Z,7.4
2022-11-05T05:47:17.453Z,7.3
2022-11-05T05:48:22.507Z,7.3
2022-11-05T05:49:17.560Z,7.3
2022-11-05T05:50:17.631Z,7.3
2022-11-05T05:51:17.694Z,7.3
2022-11-05T05:52:17.719Z,7.3
2022-11-05T05:53:17.811Z,7.3
2022-11-05T05:54:17.871Z,7.2
2022-11-05T05:55:17.926Z,7.2
2022-11-05T05:56:17.998Z,7.2
2022-11-05T05:57:18.045Z,7.2
2022-11-05T05:58:18.094Z,7.3
2022-11-05T05:59:23.161Z,7.3
2022-11-05T06:00:18.191Z,7.2
2022-11-05T06:01:19.500Z,7.2
2022-11-05T06:02:18.439Z,7.3
2022-11-05T06:03:18.340Z,7.3
2022-11-05T06:04:18.402Z,7.3
2022-11-05T06:05:18.425Z,7.3
2022-11-05T06:06:18.513Z,7.3
2022-11-05T06:07:18.814Z,7.3
2022-11-05T06:08:18.733Z,7.3
2022-11-05T06:09:18.696Z,7.4
2022-11-05T06:10:18.813Z,7.4
2022-11-05T06:11:18.808Z,7.3
2022-11-05T06:12:20.127Z,7.3
2022-11-05T06:13:18.909Z,7.3
2022-11-05T06:14:19.013Z,7.3
2022-11-05T06:15:19.021Z,7.3
2022-11-05T06:16:19.084Z,7.3
2022-11-05T06:17:19.143Z,7.3
2022-11-05T06:18:19.217Z,7.4
2022-11-05T06:19:19.305Z,7.3
2022-11-05T06:20:19.303Z,7.3
2022-11-05T06:21:19.386Z,7.4
2022-11-05T06:22:19.672Z,7.4
2022-11-05T06:23:19.489Z,7.4
2022-11-05T06:24:19.565Z,7.4
2022-11-05T06:25:19.642Z,7.4
2022-11-05T06:26:19.670Z,7.5
2022-11-05T06:27:19.731Z,7.5
2022-11-05T06:28:19.915Z,7.5
2022-11-05T06:29:19.851Z,7.5
2022-11-05T06:30:19.909Z,7.5
2022-11-05T06:31:19.929Z,7.5
2022-11-05T06:32:24.159Z,7.6
2022-11-05T06:33:20.183Z,7.6
2022-11-05T06:34:20.319Z,7.5
2022-11-05T06:35:20.526Z,7.6
2022-11-05T06:36:20.573Z,7.6
2022-11-05T06:37:20.672Z,7.6
2022-11-05T06:38:20.970Z,7.5
2022-11-05T06:39:20.790Z,7.5
2022-11-05T06:40:20.824Z,7.5
2022-11-05T06:41:20.880Z,7.4
2022-11-05T06:42:20.936Z,7.4
2022-11-05T06:43:20.977Z,7.5
2022-11-05T06:44:21.081Z,7.5
2022-11-05T06:45:21.430Z,7.5
2022-11-05T06:46:21.149Z,7.5
2022-11-05T06:47:24.671Z,7.5
2022-11-05T06:48:21.335Z,7.5
2022-11-05T06:49:21.342Z,7.6
2022-11-05T06:50:21.449Z,7.6
2022-11-05T06:51:21.458Z,7.6
2022-11-05T06:52:21.516Z,7.6
2022-11-05T06:53:21.572Z,7.6
2022-11-05T06:54:21.859Z,7.5
2022-11-05T06:55:21.686Z,7.5
2022-11-05T06:56:21.799Z,7.5
2022-11-05T06:57:26.763Z,7.5
2022-11-05T06:58:22.145Z,7.5
2022-11-05T06:59:21.921Z,7.5
2022-11-05T07:02:07.592Z,7.6
2022-11-05T07:05:44.455Z,7.5
2022-11-05T07:07:21.817Z,7.5
2022-11-05T07:07:22.842Z,7.6
2022-11-05T07:08:22.863Z,7.7
2022-11-05T07:09:28.243Z,7.7
2022-11-05T07:10:22.529Z,7.7
2022-11-05T07:11:28.021Z,7.6
2022-11-05T07:12:22.562Z,7.5
2022-11-05T07:13:23.806Z,7.6
2022-11-05T07:14:22.740Z,7.5
2022-11-05T07:15:32.649Z,7.5
2022-11-05T07:16:22.943Z,7.5
2022-11-05T07:17:29.212Z,7.4
2022-11-05T07:18:23.151Z,7.4
2022-11-05T07:19:24.861Z,7.5
2022-11-05T07:20:23.651Z,7.5
2022-11-05T07:21:24.853Z,7.5
2022-11-05T07:22:23.149Z,7.5
2022-11-05T07:23:29.135Z,7.5
2022-11-05T07:24:23.241Z,7.6
2022-11-05T07:25:29.807Z,7.7
2022-11-05T07:26:23.904Z,7.8
2022-11-05T07:27:25.746Z,7.9
2022-11-05T07:28:23.467Z,7.9
2022-11-05T07:29:27.377Z,7.9
2022-11-05T07:30:23.612Z,7.9
2022-11-05T07:31:25.990Z,7.8
2022-11-05T07:32:23.801Z,7.8
2022-11-05T07:33:27.806Z,7.9
2022-11-05T07:34:23.797Z,7.8
2022-11-05T07:35:32.703Z,7.9
2022-11-05T07:36:23.918Z,8
2022-11-05T07:37:26.780Z,7.8
2022-11-05T07:38:24.499Z,7.8
2022-11-05T07:39:24.788Z,7.8
2022-11-05T07:40:24.378Z,7.8
2022-11-05T07:41:26.942Z,7.8
2022-11-05T07:42:24.328Z,7.7
2022-11-05T07:43:26.349Z,7.7
2022-11-05T07:44:24.371Z,7.7
2022-11-05T07:45:32.162Z,7.8
2022-11-05T07:46:24.417Z,7.8
2022-11-05T07:47:28.004Z,7.6
2022-11-05T07:48:24.675Z,7.7
2022-11-05T07:49:27.525Z,7.6
2022-11-05T07:50:24.755Z,7.6
2022-11-05T07:51:26.443Z,7.6
2022-11-05T07:52:24.781Z,7.7
2022-11-05T07:53:29.527Z,8
2022-11-05T07:54:24.978Z,8.1
2022-11-05T07:55:25.450Z,8.1
2022-11-05T07:56:25.787Z,8.1
2022-11-05T07:57:25.054Z,8.1
2022-11-05T07:58:25.104Z,8.3
2022-11-05T07:59:28.596Z,8.1
2022-11-05T08:00:25.224Z,8.3
2022-11-05T08:01:25.462Z,8.5
2022-11-05T08:02:25.517Z,8.5
2022-11-05T08:03:25.454Z,8.5
2022-11-05T08:04:25.428Z,8.4
2022-11-05T08:05:26.118Z,8.4
2022-11-05T08:06:25.541Z,8.3
2022-11-05T08:07:25.606Z,8.4
2022-11-05T08:08:26.884Z,8.4
2022-11-05T08:09:25.692Z,8.4
2022-11-05T08:10:25.857Z,8.5
2022-11-05T08:11:27.467Z,8.5
2022-11-05T08:12:25.889Z,8.5
2022-11-05T08:13:31.963Z,8.5
2022-11-05T08:14:27.119Z,8.5
2022-11-05T08:15:29.682Z,8.7
2022-11-05T08:16:31.137Z,8.6
2022-11-05T08:17:33.746Z,8.6
2022-11-05T08:18:26.312Z,8.7
2022-11-05T08:19:30.676Z,8.6
2022-11-05T08:21:27.982Z,8.6
2022-11-05T08:21:27.993Z,8.6
2022-11-05T08:24:44.953Z,8.4
2022-11-05T08:26:58.564Z,8.5
2022-11-05T08:28:20.236Z,8.4
2022-11-05T08:28:26.957Z,8.5
2022-11-05T08:29:51.434Z,8.4
2022-11-05T08:32:00.137Z,8.5
2022-11-05T08:48:50.507Z,8.5
2022-11-05T08:50:48.277Z,8.5
2022-11-05T09:00:38.786Z,8.5
2022-11-05T09:00:50.051Z,9.6
2022-11-05T09:04:45.699Z,9.8
2022-11-05T09:05:36.178Z,9.8
2022-11-05T09:06:36.211Z,9.8
2022-11-05T09:07:36.261Z,9.9
2022-11-05T09:08:41.349Z,9.9
2022-11-05T09:09:38.750Z,10
2022-11-05T09:10:36.471Z,10.1
2022-11-05T09:11:57.364Z,10.1
2022-11-05T09:12:36.578Z,10
2022-11-05T09:13:36.644Z,10.2
2022-11-05T09:14:36.670Z,10.5
2022-11-05T09:15:36.689Z,10.4
2022-11-05T09:16:36.782Z,10.7
2022-11-05T09:17:36.807Z,10.6
2022-11-05T09:18:36.832Z,10.6
2022-11-05T09:19:39.890Z,10.7
2022-11-05T09:20:36.987Z,10.9
2022-11-05T09:21:37.018Z,11.1
2022-11-05T09:22:42.141Z,11.2
2022-11-05T09:23:37.116Z,10.8
2022-11-05T09:24:37.173Z,10.7
2022-11-05T09:25:37.209Z,10.9
2022-11-05T09:26:37.295Z,10.9
2022-11-05T09:27:37.314Z,10.6
2022-11-05T09:28:37.396Z,10.6
2022-11-05T09:29:37.455Z,10.1
2022-11-05T09:30:37.555Z,9.9
2022-11-05T09:31:37.618Z,10
2022-11-05T09:32:37.689Z,9.9
2022-11-05T09:33:37.690Z,9.9
2022-11-05T09:34:37.766Z,10
2022-11-05T09:35:37.839Z,10
2022-11-05T09:36:37.917Z,10.2
2022-11-05T09:37:37.939Z,10.2
2022-11-05T09:38:37.977Z,10
2022-11-05T09:39:38.029Z,10.1
2022-11-05T09:40:38.072Z,10
2022-11-05T09:41:38.188Z,10.1
2022-11-05T09:42:38.200Z,10.9
2022-11-05T09:43:38.298Z,11
2022-11-05T09:44:38.307Z,10.5
2022-11-05T09:45:38.354Z,10.3
2022-11-05T09:46:38.403Z,10.3
2022-11-05T09:47:38.428Z,10.8
2022-11-05T09:48:38.833Z,11.6
2022-11-05T09:49:38.514Z,12.1
2022-11-05T09:50:38.638Z,12.6
2022-11-05T09:51:38.635Z,12.7
2022-11-05T09:52:38.728Z,12.9
2022-11-05T09:53:38.717Z,12.7
2022-11-05T09:54:38.816Z,12.6
2022-11-05T09:55:38.848Z,12.7
2022-11-05T09:56:38.924Z,12.8
2022-11-05T09:57:38.990Z,12.7
2022-11-05T09:58:44.021Z,12.9
2022-11-05T09:59:39.362Z,13
2022-11-05T10:00:39.502Z,13
2022-11-05T10:01:39.586Z,13.3
2022-11-05T10:02:39.570Z,13.3
2022-11-05T10:03:39.545Z,13.4
2022-11-05T10:04:39.613Z,13.3
2022-11-05T10:05:39.783Z,13.4
2022-11-05T10:06:39.748Z,13.4
2022-11-05T10:07:39.780Z,13.6
2022-11-05T10:08:39.853Z,13.2
2022-11-05T10:09:39.901Z,13.2
2022-11-05T10:10:41.228Z,13.3
2022-11-05T10:11:40.059Z,12.7
2022-11-05T10:12:40.084Z,12.5
2022-11-05T10:13:40.234Z,12.7
2022-11-05T10:14:40.252Z,13.2
2022-11-05T10:15:40.274Z,13.5
2022-11-05T10:16:40.324Z,13.2
2022-11-05T10:17:40.395Z,12.3
2022-11-05T10:18:40.429Z,11.7
2022-11-05T10:19:40.471Z,11.9
2022-11-05T10:20:40.533Z,11.7
2022-11-05T10:21:59.958Z,11.5
2022-11-05T10:22:43.927Z,11.4
2022-11-05T10:23:40.694Z,11.5
2022-11-05T10:24:40.801Z,11.6
2022-11-05T10:25:40.808Z,11.6
2022-11-05T10:26:40.902Z,11.5
2022-11-05T10:27:40.902Z,11.6
2022-11-05T10:28:40.959Z,11.6
2022-11-05T10:29:43.339Z,11.7
2022-11-05T10:30:43.399Z,11.4
2022-11-05T10:31:43.488Z,11.4
2022-11-05T10:32:43.492Z,11.6
2022-11-05T10:33:43.539Z,11.6
2022-11-05T10:34:43.617Z,11.4
2022-11-05T10:35:43.671Z,11.3
2022-11-05T10:36:43.724Z,11.3
2022-11-05T10:37:43.769Z,12
2022-11-05T10:38:43.822Z,12.4
2022-11-05T10:39:43.912Z,12.8
2022-11-05T10:40:48.917Z,13.3
2022-11-05T10:41:48.988Z,13.6
2022-11-05T10:42:44.063Z,13.7
2022-11-05T10:43:44.430Z,13.8
2022-11-05T10:44:44.129Z,12.6
2022-11-05T10:45:44.196Z,12.2
2022-11-05T10:46:44.215Z,12.4
2022-11-05T10:47:44.274Z,12.4
2022-11-05T10:48:44.416Z,12.5
2022-11-05T10:49:44.398Z,12.9
2022-11-05T10:50:44.532Z,13.4
2022-11-05T10:51:44.512Z,13.6
2022-11-05T10:52:44.562Z,13.4
2022-11-05T10:53:44.628Z,13.3
2022-11-05T10:54:44.658Z,13.4
2022-11-05T10:55:44.823Z,13
2022-11-05T10:56:44.794Z,12.6
2022-11-05T10:57:44.898Z,12.5
2022-11-05T10:58:44.903Z,12.7
2022-11-05T10:59:44.992Z,12.8
2022-11-05T11:00:45.100Z,13
2022-11-05T11:01:45.264Z,12.7
2022-11-05T11:02:45.169Z,12.3
2022-11-05T11:03:45.214Z,12
2022-11-05T11:04:45.260Z,12
2022-11-05T11:05:45.357Z,11.8
2022-11-05T11:06:45.359Z,11.8
2022-11-05T11:07:45.433Z,11.8
2022-11-05T11:08:45.517Z,11.8
2022-11-05T11:09:45.549Z,12
2022-11-05T11:10:45.590Z,12.1
2022-11-05T11:11:45.673Z,12
2022-11-05T11:12:45.712Z,11.9
2022-11-05T11:13:45.747Z,12
2022-11-05T11:14:45.807Z,12
2022-11-05T11:15:45.853Z,12.2
2022-11-05T11:16:45.908Z,12.4
2022-11-05T11:17:47.835Z,12.4
2022-11-05T11:18:46.050Z,12.2
2022-11-05T11:19:46.086Z,12
2022-11-05T11:20:46.151Z,12.2
2022-11-05T11:21:46.206Z,12.1
2022-11-05T11:22:46.272Z,12.3
2022-11-05T11:23:46.325Z,12.7
2022-11-05T11:24:46.429Z,12.8
2022-11-05T11:25:46.441Z,12.5
2022-11-05T11:26:46.500Z,12.3
2022-11-05T11:27:46.545Z,12.3
2022-11-05T11:28:46.637Z,12.4
2022-11-05T11:29:49.484Z,12.6
2022-11-05T11:30:47.991Z,12.9
2022-11-05T11:31:48.047Z,13.3
2022-11-05T11:32:48.109Z,13.3
2022-11-05T11:33:48.176Z,13
2022-11-05T11:34:48.202Z,12.6
2022-11-05T11:35:48.282Z,12.8
2022-11-05T11:36:48.402Z,12.9
2022-11-05T11:37:48.402Z,12.9
2022-11-05T11:38:48.493Z,13.1
2022-11-05T11:39:48.516Z,12.7
2022-11-05T11:40:48.577Z,12.5
2022-11-05T11:41:48.631Z,12.7
2022-11-05T11:42:48.690Z,13.1
2022-11-05T11:43:48.782Z,13.3
2022-11-05T11:44:48.793Z,13.6
2022-11-05T11:45:48.837Z,13.6
2022-11-05T11:46:48.929Z,13.4
2022-11-05T11:47:49.005Z,13.5
2022-11-05T11:48:49.065Z,13.1
2022-11-05T11:49:49.068Z,12.8
2022-11-05T11:50:49.148Z,12.8
2022-11-05T11:51:50.173Z,12.7
2022-11-05T11:52:49.290Z,12.5
2022-11-05T11:53:49.297Z,12.5
2022-11-05T11:54:49.336Z,12.1
2022-11-05T11:55:49.393Z,12
2022-11-05T11:56:49.524Z,11.9
2022-11-05T11:57:49.546Z,11.8
2022-11-05T11:59:11.835Z,11.6
2022-11-05T12:00:08.585Z,11.7
2022-11-05T12:04:39.604Z,11.9
2022-11-05T12:04:40.112Z,11.8
2022-11-05T12:04:51.045Z,12
2022-11-05T12:05:58.604Z,12.2
2022-11-05T12:06:56.770Z,11.9
2022-11-05T12:07:58.533Z,12
2022-11-05T12:08:56.496Z,11.8
2022-11-05T12:10:08.209Z,11.8
2022-11-05T12:10:56.050Z,11.9
2022-11-05T12:11:50.409Z,12
2022-11-05T12:12:50.417Z,12.2
2022-11-05T12:14:12.211Z,12.2
2022-11-05T12:14:55.717Z,12.2
2022-11-05T12:16:13.335Z,12.3
2022-11-05T12:16:56.986Z,12.4
2022-11-05T12:18:05.551Z,12.4
2022-11-05T12:19:22.275Z,12.2
2022-11-05T12:20:11.818Z,11.9
2022-11-05T12:20:57.005Z,12
2022-11-05T12:22:15.256Z,12.1
2022-11-05T12:22:50.924Z,12.1
2022-11-05T12:25:47.716Z,12.2
2022-11-05T12:26:10.076Z,12.5
2022-11-05T12:32:33.085Z,12.1
2022-11-05T12:33:29.383Z,12.2
2022-11-05T12:34:10.619Z,12.5
2022-11-05T12:35:22.468Z,12.5
2022-11-05T12:36:17.268Z,12.3
2022-11-05T12:36:51.743Z,12.4
2022-11-05T12:37:51.842Z,12.5
2022-11-05T12:38:51.925Z,12.3
2022-11-05T12:39:51.870Z,12.2
2022-11-05T12:40:51.935Z,12
2022-11-05T12:41:52.195Z,12.1
2022-11-05T12:42:52.049Z,12.2
2022-11-05T12:43:52.129Z,12.2
2022-11-05T12:44:52.423Z,12.2
2022-11-05T12:45:52.211Z,12.2
2022-11-05T12:46:52.287Z,12.3
2022-11-05T12:47:52.541Z,12.6
2022-11-05T12:48:52.460Z,12.6
2022-11-05T12:49:52.761Z,12.5
2022-11-05T12:50:52.585Z,12.7
2022-11-05T12:51:57.625Z,13
2022-11-05T12:52:52.790Z,13.1
2022-11-05T12:53:52.719Z,12.9
2022-11-05T12:54:52.810Z,12.6
2022-11-05T12:55:52.908Z,12.3
2022-11-05T12:56:52.896Z,12.1
2022-11-05T12:57:52.965Z,12.2
2022-11-05T12:58:53.057Z,12.2
2022-11-05T12:59:53.078Z,12
2022-11-05T13:00:53.170Z,12
2022-11-05T13:01:53.343Z,11.9
2022-11-05T13:02:53.472Z,11.8
2022-11-05T13:03:53.467Z,11.7
2022-11-05T13:04:53.730Z,11.8
2022-11-05T13:05:53.489Z,11.5
2022-11-05T13:06:53.862Z,11.6
2022-11-05T13:07:58.567Z,11.6
2022-11-05T13:08:53.736Z,11.6
2022-11-05T13:09:53.858Z,11.5
2022-11-05T13:10:53.753Z,11.5
2022-11-05T13:11:53.922Z,11.5
2022-11-05T13:12:53.894Z,11.5
2022-11-05T13:13:54.001Z,11.4
2022-11-05T13:14:59.865Z,11.5
2022-11-05T13:15:54.956Z,11.5
2022-11-05T13:16:54.749Z,11.5
2022-11-05T13:17:54.149Z,11.4
2022-11-05T13:18:54.205Z,11.5
2022-11-05T13:19:54.244Z,11.5
2022-11-05T13:20:54.301Z,11.4
2022-11-05T13:21:54.323Z,11.5
2022-11-05T13:22:54.589Z,11.6
2022-11-05T13:23:54.456Z,11.5
2022-11-05T13:24:54.502Z,11.4
2022-11-05T13:25:54.523Z,11.4
2022-11-05T13:26:54.621Z,11.5
2022-11-05T13:27:54.767Z,11.6
2022-11-05T13:28:54.788Z,11.7
2022-11-05T13:29:55.017Z,11.6
2022-11-05T13:30:54.904Z,11.5
2022-11-05T13:31:54.852Z,11.6
2022-11-05T13:32:54.929Z,11.7
2022-11-05T13:33:54.999Z,11.6
2022-11-05T13:34:55.054Z,11.6
2022-11-05T13:35:55.135Z,11.4
2022-11-05T13:36:55.204Z,11.2
2022-11-05T13:37:55.253Z,11.3
2022-11-05T13:38:55.293Z,11.4
2022-11-05T13:39:55.408Z,11.3
2022-11-05T13:40:55.438Z,11.3
2022-11-05T13:41:55.850Z,11.3
2022-11-05T13:42:55.553Z,11.3
2022-11-05T13:43:55.627Z,11.3
2022-11-05T13:44:55.665Z,11.1
2022-11-05T13:45:56.300Z,11.2
2022-11-05T13:46:55.800Z,11.2
2022-11-05T13:47:55.901Z,11.2
2022-11-05T13:48:55.965Z,11.2
2022-11-05T13:49:55.941Z,11.2
2022-11-05T13:50:56.003Z,11.2
2022-11-05T13:51:56.072Z,11.3
2022-11-05T13:52:56.107Z,11.2
2022-11-05T13:53:56.164Z,11.2
2022-11-05T13:54:56.198Z,11.3
2022-11-05T13:55:56.274Z,11.2
2022-11-05T13:56:56.357Z,11.1
2022-11-05T13:57:56.407Z,11.1
2022-11-05T13:58:56.455Z,11.1
2022-11-05T13:59:56.511Z,11.1
2022-11-05T14:00:56.634Z,11.1
2022-11-05T14:01:56.767Z,11
2022-11-05T14:02:56.647Z,11.1
2022-11-05T14:03:56.688Z,11.1
2022-11-05T14:05:00.906Z,11
2022-11-05T14:05:56.810Z,11.2
2022-11-05T14:06:57.203Z,11.2
2022-11-05T14:07:56.941Z,10.9
2022-11-05T14:08:56.983Z,11
2022-11-05T14:09:57.030Z,11
2022-11-05T14:10:57.097Z,11
2022-11-05T14:11:57.143Z,10.9
2022-11-05T14:12:57.238Z,10.8
2022-11-05T14:13:57.275Z,10.9
2022-11-05T14:14:58.960Z,10.9
2022-11-05T14:15:57.382Z,10.8
2022-11-05T14:16:57.433Z,10.7
2022-11-05T14:17:57.518Z,10.7
2022-11-05T14:18:57.553Z,10.7
2022-11-05T14:19:57.587Z,10.8
2022-11-05T14:20:57.654Z,10.8
2022-11-05T14:21:57.725Z,10.8
2022-11-05T14:22:57.815Z,10.9
2022-11-05T14:23:57.875Z,10.9
2022-11-05T14:24:57.924Z,10.8
2022-11-05T14:25:57.948Z,10.8